Ce site web utilise les _ga y _gid propriété de Google Analytics, qui persistent pendant 2 ans, pour habiliter la fonction de contrôle des visites uniques afin de vous faciliter la navigation sur le site web. Si vous continuez votre navigation nous considérons que vous êtes d’accord avec leur utilisation. Vous pourrez révoquer le consentement et obtenir plus d’informations en consultant notre Politique de Cookies.

Fil

Fil led opal suspended/surface14781400FIL LED G2 OPAL SUS 3000 WW DALI WH.

Luminaire à suspendre ou adosser modèle FIL LED G2 OPAL SUS 3000 WW WH. de la marque LAMP. Profilé fabriqué en aluminium extrudé peint en blanc satiné avec diffuseur en polycarbonate opale. Modèle pour LED MID-POWER, température de couleur blanc chaud et équipement électronique incorporé. Avec diffuseur en polycarbonate opale. Avec niveau de protection IP42, IK07. Classe d’isolation I. Groupe de sécurité Photobiologique 0.
Puissance:
19W
Température de couleur:
3000K
Flux lumineux:
1900
Équipement:
Réglable DALI
Longueur:
1137mm
Finition:
Blanc mat RAL 9010

Données photométriques

Avez-vous besoin de plus d'informations?

Variantes de ce produit

CodeWKlm outÉquipementLongueurFinitionlmÉquipement
1474143355W3000K5349-1700mmGris9200Pas réglable
1474143055W3000K5349-1700mmBlanc9200Pas réglable
1474142337W3000K3566-1137mmGris6000Pas réglable
1474142037W3000K3566-1137mmBlanc6000Pas réglable
1474141328W3000K2850-1700mmGris4600Pas réglable
1474141028W3000K2850-1700mmBlanc4600Pas réglable
1474140319W3000K1900-1137mmGris3000Pas réglable
1474140019W3000K1900-1137mmBlanc3000Pas réglable
1474043355W4000K5642-1700mmGris9200Pas réglable
1474043055W4000K5642-1700mmBlanc9200Pas réglable
1474042337W4000K3761-1137mmGris6000Pas réglable
1474042037W4000K3761-1137mmBlanc6000Pas réglable
1474041328W4000K3006-1700mmGris4600Pas réglable
1474041028W4000K3006-1700mmBlanc4600Pas réglable
1474040319W4000K2004-1137mmGris3000Pas réglable
1474040019W4000K2004-1137mmBlanc3000Pas réglable
1478140319W3000K1900DALI1137mmGris3000Réglable DALI
1478140019W3000K1900DALI1137mmBlanc3000Réglable DALI
1478040319W4000K2004DALI1137mmGris3000Réglable DALI
1478040019W4000K2004DALI1137mmBlanc3000Réglable DALI
1478141328W3000K2850DALI1700mmGris4600Réglable DALI
1478141028W3000K2850DALI1700mmBlanc4600Réglable DALI
1478041328W4000K3006DALI1700mmGris4600Réglable DALI
1478041028W4000K3006DALI1700mmBlanc4600Réglable DALI

Accessoires